Verdigre, Nebraska
Current Conditions -  °F | °C
As of 9:35 PM on Friday 28 Nov 2014 (Local Time) from KONL Reporting Station
Clear Clear  
Wind Chill: 36°   Ceiling: Unl
Heat Index: 40°   Visibility: 10mi
Dew Point: 30°   Wind: 7mph
Humidity: 66%   Direction: 200°SSW
Pressure: 29.57"   Gusts: NA
Location:  42.6°N, 98.03°W
Report Text: KONL 290335Z AUTO 20006KT 10SM CLR 05/M01 A2957 RMK AO2 T00471012
Loading
Personal Weather Stations






























Interactive Weather Map New forecast layout! Learn more

10-Day Weather Forecast

Advertisements
Track Severe Weather on mobile